sensor_id;sensor_type;location;lat;lon;timestamp;temperature;humidity
21104;DHT22;10710;53.398;-1.514;2023-12-20T00:00:05;8.60;99.90
21104;DHT22;10710;53.398;-1.514;2023-12-20T00:02:50;9.10;99.90
21104;DHT22;10710;53.398;-1.514;2023-12-20T02:54:55;9.40;99.90
21104;DHT22;10710;53.398;-1.514;2023-12-20T02:57:39;9.40;99.90
21104;DHT22;10710;53.398;-1.514;2023-12-20T03:00:35;9.30;99.90
21104;DHT22;10710;53.398;-1.514;2023-12-20T03:03:32;9.20;99.90
21104;DHT22;10710;53.398;-1.514;2023-12-20T03:06:25;8.80;99.90
21104;DHT22;10710;53.398;-1.514;2023-12-20T03:09:17;9.30;99.90
21104;DHT22;10710;53.398;-1.514;2023-12-20T03:12:06;9.20;99.90
21104;DHT22;10710;53.398;-1.514;2023-12-20T03:15:05;9.30;99.90
21104;DHT22;10710;53.398;-1.514;2023-12-20T03:17:49;9.40;99.90
21104;DHT22;10710;53.398;-1.514;2023-12-20T03:20:34;9.40;99.90
21104;DHT22;10710;53.398;-1.514;2023-12-20T03:23:18;9.30;99.90
21104;DHT22;10710;53.398;-1.514;2023-12-20T03:26:03;9.30;99.90
21104;DHT22;10710;53.398;-1.514;2023-12-20T03:28:48;9.40;99.90
21104;DHT22;10710;53.398;-1.514;2023-12-20T03:31:33;9.20;99.90
21104;DHT22;10710;53.398;-1.514;2023-12-20T03:34:17;9.20;99.90
21104;DHT22;10710;53.398;-1.514;2023-12-20T03:37:01;9.10;99.90
21104;DHT22;10710;53.398;-1.514;2023-12-20T03:39:46;9.10;99.90
21104;DHT22;10710;53.398;-1.514;2023-12-20T03:42:30;9.20;99.90
21104;DHT22;10710;53.398;-1.514;2023-12-20T03:45:14;9.10;99.90
21104;DHT22;10710;53.398;-1.514;2023-12-20T03:47:58;9.10;99.90
21104;DHT22;10710;53.398;-1.514;2023-12-20T03:50:43;9.20;99.90
21104;DHT22;10710;53.398;-1.514;2023-12-20T03:53:31;9.20;99.90
21104;DHT22;10710;53.398;-1.514;2023-12-20T03:56:15;9.20;99.90
21104;DHT22;10710;53.398;-1.514;2023-12-20T03:58:59;9.30;99.90
21104;DHT22;10710;53.398;-1.514;2023-12-20T04:01:43;9.30;99.90
21104;DHT22;10710;53.398;-1.514;2023-12-20T04:04:29;9.20;99.90
21104;DHT22;10710;53.398;-1.514;2023-12-20T04:07:13;9.20;99.90
21104;DHT22;10710;53.398;-1.514;2023-12-20T04:09:57;9.10;99.90
21104;DHT22;10710;53.398;-1.514;2023-12-20T04:12:42;9.10;99.90
21104;DHT22;10710;53.398;-1.514;2023-12-20T04:15:26;9.10;99.90
21104;DHT22;10710;53.398;-1.514;2023-12-20T04:18:10;9.10;99.90
21104;DHT22;10710;53.398;-1.514;2023-12-20T04:20:54;9.20;99.90
21104;DHT22;10710;53.398;-1.514;2023-12-20T04:23:38;9.20;99.90
21104;DHT22;10710;53.398;-1.514;2023-12-20T04:26:23;9.20;99.90
21104;DHT22;10710;53.398;-1.514;2023-12-20T04:29:07;9.20;99.90
21104;DHT22;10710;53.398;-1.514;2023-12-20T04:31:51;9.20;99.90
21104;DHT22;10710;53.398;-1.514;2023-12-20T04:34:36;9.10;99.90
21104;DHT22;10710;53.398;-1.514;2023-12-20T04:37:20;9.10;99.90
21104;DHT22;10710;53.398;-1.514;2023-12-20T04:40:05;9.20;99.90
21104;DHT22;10710;53.398;-1.514;2023-12-20T04:42:50;9.30;99.90
21104;DHT22;10710;53.398;-1.514;2023-12-20T04:45:34;9.30;99.90
21104;DHT22;10710;53.398;-1.514;2023-12-20T04:48:19;9.20;99.90
21104;DHT22;10710;53.398;-1.514;2023-12-20T04:51:03;9.20;99.90
21104;DHT22;10710;53.398;-1.514;2023-12-20T04:53:48;9.20;99.90
21104;DHT22;10710;53.398;-1.514;2023-12-20T04:56:32;9.10;99.90
21104;DHT22;10710;53.398;-1.514;2023-12-20T04:59:17;9.20;99.90
21104;DHT22;10710;53.398;-1.514;2023-12-20T05:02:01;9.10;99.90
21104;DHT22;10710;53.398;-1.514;2023-12-20T05:04:45;9.10;99.90
21104;DHT22;10710;53.398;-1.514;2023-12-20T05:07:30;9.00;99.90
21104;DHT22;10710;53.398;-1.514;2023-12-20T05:10:14;9.00;99.90
21104;DHT22;10710;53.398;-1.514;2023-12-20T05:12:59;8.90;99.90
21104;DHT22;10710;53.398;-1.514;2023-12-20T05:15:43;9.00;99.90
21104;DHT22;10710;53.398;-1.514;2023-12-20T05:18:27;8.90;99.90
21104;DHT22;10710;53.398;-1.514;2023-12-20T05:21:12;8.90;99.90
21104;DHT22;10710;53.398;-1.514;2023-12-20T05:23:57;8.80;99.90
21104;DHT22;10710;53.398;-1.514;2023-12-20T05:26:42;8.80;99.90
21104;DHT22;10710;53.398;-1.514;2023-12-20T05:29:26;8.80;99.90
21104;DHT22;10710;53.398;-1.514;2023-12-20T05:32:10;8.90;99.90
21104;DHT22;10710;53.398;-1.514;2023-12-20T05:34:54;8.90;99.90
21104;DHT22;10710;53.398;-1.514;2023-12-20T05:37:38;8.90;99.90
21104;DHT22;10710;53.398;-1.514;2023-12-20T05:40:23;8.90;99.90
21104;DHT22;10710;53.398;-1.514;2023-12-20T05:43:07;8.90;99.90
21104;DHT22;10710;53.398;-1.514;2023-12-20T05:45:52;8.90;99.90
21104;DHT22;10710;53.398;-1.514;2023-12-20T05:48:36;8.90;99.90
21104;DHT22;10710;53.398;-1.514;2023-12-20T05:51:20;8.90;99.90
21104;DHT22;10710;53.398;-1.514;2023-12-20T05:54:04;8.90;99.90
21104;DHT22;10710;53.398;-1.514;2023-12-20T05:56:51;9.00;99.90
21104;DHT22;10710;53.398;-1.514;2023-12-20T05:59:35;9.10;99.90
21104;DHT22;10710;53.398;-1.514;2023-12-20T06:02:19;9.20;99.90
21104;DHT22;10710;53.398;-1.514;2023-12-20T06:05:05;9.10;99.90
21104;DHT22;10710;53.398;-1.514;2023-12-20T06:07:49;9.20;99.90
21104;DHT22;10710;53.398;-1.514;2023-12-20T06:10:34;9.30;99.90
21104;DHT22;10710;53.398;-1.514;2023-12-20T06:13:19;9.50;99.90
21104;DHT22;10710;53.398;-1.514;2023-12-20T06:16:05;9.80;99.90
21104;DHT22;10710;53.398;-1.514;2023-12-20T06:18:50;9.40;99.90
21104;DHT22;10710;53.398;-1.514;2023-12-20T06:21:34;9.30;99.90
21104;DHT22;10710;53.398;-1.514;2023-12-20T06:24:22;9.30;99.90
21104;DHT22;10710;53.398;-1.514;2023-12-20T06:27:06;9.30;99.90
21104;DHT22;10710;53.398;-1.514;2023-12-20T06:29:50;9.40;99.90
21104;DHT22;10710;53.398;-1.514;2023-12-20T06:32:35;9.30;99.90
21104;DHT22;10710;53.398;-1.514;2023-12-20T06:35:20;9.50;99.90
21104;DHT22;10710;53.398;-1.514;2023-12-20T06:38:04;9.50;99.90
21104;DHT22;10710;53.398;-1.514;2023-12-20T06:40:48;9.50;99.90
21104;DHT22;10710;53.398;-1.514;2023-12-20T06:43:33;9.50;99.90
21104;DHT22;10710;53.398;-1.514;2023-12-20T06:46:17;9.50;99.90
21104;DHT22;10710;53.398;-1.514;2023-12-20T06:49:01;9.50;99.90
21104;DHT22;10710;53.398;-1.514;2023-12-20T06:51:46;9.40;99.90
21104;DHT22;10710;53.398;-1.514;2023-12-20T06:54:30;9.20;99.90
21104;DHT22;10710;53.398;-1.514;2023-12-20T06:57:14;9.30;99.90
21104;DHT22;10710;53.398;-1.514;2023-12-20T06:59:59;9.30;99.90
21104;DHT22;10710;53.398;-1.514;2023-12-20T07:02:44;9.30;99.90
21104;DHT22;10710;53.398;-1.514;2023-12-20T07:05:28;9.20;99.90
21104;DHT22;10710;53.398;-1.514;2023-12-20T07:08:12;9.30;99.90
21104;DHT22;10710;53.398;-1.514;2023-12-20T07:10:58;9.30;99.90
21104;DHT22;10710;53.398;-1.514;2023-12-20T07:13:42;9.30;99.90
21104;DHT22;10710;53.398;-1.514;2023-12-20T07:16:27;9.30;99.90
21104;DHT22;10710;53.398;-1.514;2023-12-20T07:19:12;9.20;99.90
21104;DHT22;10710;53.398;-1.514;2023-12-20T07:21:56;9.20;99.90
21104;DHT22;10710;53.398;-1.514;2023-12-20T07:24:40;9.30;99.90
21104;DHT22;10710;53.398;-1.514;2023-12-20T07:27:25;9.30;99.90
21104;DHT22;10710;53.398;-1.514;2023-12-20T07:30:10;9.30;99.90
21104;DHT22;10710;53.398;-1.514;2023-12-20T07:32:54;9.20;99.90
21104;DHT22;10710;53.398;-1.514;2023-12-20T07:35:38;9.20;99.90
21104;DHT22;10710;53.398;-1.514;2023-12-20T07:38:23;9.30;99.90
21104;DHT22;10710;53.398;-1.514;2023-12-20T07:41:09;9.20;99.90
21104;DHT22;10710;53.398;-1.514;2023-12-20T07:43:54;9.30;99.90
21104;DHT22;10710;53.398;-1.514;2023-12-20T07:46:39;9.50;99.90
21104;DHT22;10710;53.398;-1.514;2023-12-20T07:49:24;8.90;99.90
21104;DHT22;10710;53.398;-1.514;2023-12-20T07:52:09;9.30;99.90
21104;DHT22;10710;53.398;-1.514;2023-12-20T07:54:53;9.40;99.90
21104;DHT22;10710;53.398;-1.514;2023-12-20T07:57:38;9.50;99.90
21104;DHT22;10710;53.398;-1.514;2023-12-20T08:00:22;9.40;99.90
21104;DHT22;10710;53.398;-1.514;2023-12-20T08:03:07;9.40;99.90
21104;DHT22;10710;53.398;-1.514;2023-12-20T08:05:51;9.50;99.90
21104;DHT22;10710;53.398;-1.514;2023-12-20T08:08:35;9.50;99.90
21104;DHT22;10710;53.398;-1.514;2023-12-20T08:11:20;9.50;99.90
21104;DHT22;10710;53.398;-1.514;2023-12-20T08:14:04;9.50;99.90
21104;DHT22;10710;53.398;-1.514;2023-12-20T08:16:48;9.50;99.90
21104;DHT22;10710;53.398;-1.514;2023-12-20T08:19:33;9.40;99.90
21104;DHT22;10710;53.398;-1.514;2023-12-20T08:22:17;9.30;99.90
21104;DHT22;10710;53.398;-1.514;2023-12-20T08:25:01;9.30;99.90
21104;DHT22;10710;53.398;-1.514;2023-12-20T08:27:46;9.30;99.90
21104;DHT22;10710;53.398;-1.514;2023-12-20T08:30:31;9.40;99.90
21104;DHT22;10710;53.398;-1.514;2023-12-20T08:33:16;9.40;99.90
21104;DHT22;10710;53.398;-1.514;2023-12-20T08:36:00;9.30;99.90
21104;DHT22;10710;53.398;-1.514;2023-12-20T08:38:49;9.50;99.90
21104;DHT22;10710;53.398;-1.514;2023-12-20T08:41:35;9.50;99.90
21104;DHT22;10710;53.398;-1.514;2023-12-20T08:44:21;9.50;99.90
21104;DHT22;10710;53.398;-1.514;2023-12-20T08:47:06;9.50;99.90
21104;DHT22;10710;53.398;-1.514;2023-12-20T08:49:51;9.30;99.90
21104;DHT22;10710;53.398;-1.514;2023-12-20T08:52:40;9.30;99.90
21104;DHT22;10710;53.398;-1.514;2023-12-20T08:55:24;9.40;99.90
21104;DHT22;10710;53.398;-1.514;2023-12-20T08:58:11;9.60;99.90
21104;DHT22;10710;53.398;-1.514;2023-12-20T09:00:55;9.60;99.90
21104;DHT22;10710;53.398;-1.514;2023-12-20T09:03:41;9.70;99.90
21104;DHT22;10710;53.398;-1.514;2023-12-20T09:06:25;9.20;99.90
21104;DHT22;10710;53.398;-1.514;2023-12-20T09:09:10;9.50;99.90
21104;DHT22;10710;53.398;-1.514;2023-12-20T09:11:57;9.60;99.90
21104;DHT22;10710;53.398;-1.514;2023-12-20T09:14:42;9.60;99.90
21104;DHT22;10710;53.398;-1.514;2023-12-20T09:17:26;9.60;99.90
21104;DHT22;10710;53.398;-1.514;2023-12-20T09:20:12;9.50;99.90
21104;DHT22;10710;53.398;-1.514;2023-12-20T09:22:57;9.70;99.90
21104;DHT22;10710;53.398;-1.514;2023-12-20T09:25:42;9.80;99.90
21104;DHT22;10710;53.398;-1.514;2023-12-20T09:28:26;9.90;99.90
21104;DHT22;10710;53.398;-1.514;2023-12-20T09:31:13;9.90;99.90
21104;DHT22;10710;53.398;-1.514;2023-12-20T09:33:57;9.80;99.90
21104;DHT22;10710;53.398;-1.514;2023-12-20T09:36:41;9.80;99.90
21104;DHT22;10710;53.398;-1.514;2023-12-20T09:39:30;9.70;99.90
21104;DHT22;10710;53.398;-1.514;2023-12-20T09:42:23;9.60;99.90
21104;DHT22;10710;53.398;-1.514;2023-12-20T09:45:09;9.60;99.90
21104;DHT22;10710;53.398;-1.514;2023-12-20T09:47:54;9.50;99.90
21104;DHT22;10710;53.398;-1.514;2023-12-20T09:50:39;9.70;99.90
21104;DHT22;10710;53.398;-1.514;2023-12-20T09:53:25;9.90;99.90
21104;DHT22;10710;53.398;-1.514;2023-12-20T09:56:13;9.80;99.90
21104;DHT22;10710;53.398;-1.514;2023-12-20T09:58:59;9.80;99.90
21104;DHT22;10710;53.398;-1.514;2023-12-20T10:01:44;9.90;99.90
21104;DHT22;10710;53.398;-1.514;2023-12-20T10:04:32;9.90;99.90
21104;DHT22;10710;53.398;-1.514;2023-12-20T10:07:16;10.00;99.90
21104;DHT22;10710;53.398;-1.514;2023-12-20T10:10:02;10.10;99.90
21104;DHT22;10710;53.398;-1.514;2023-12-20T10:13:04;10.10;99.90
21104;DHT22;10710;53.398;-1.514;2023-12-20T10:15:49;10.10;99.90
21104;DHT22;10710;53.398;-1.514;2023-12-20T10:18:34;10.00;99.90
21104;DHT22;10710;53.398;-1.514;2023-12-20T10:21:19;10.30;99.90
21104;DHT22;10710;53.398;-1.514;2023-12-20T10:24:04;10.20;99.90
21104;DHT22;10710;53.398;-1.514;2023-12-20T10:27:01;10.50;99.90
21104;DHT22;10710;53.398;-1.514;2023-12-20T10:29:48;10.40;99.90
21104;DHT22;10710;53.398;-1.514;2023-12-20T10:32:32;10.50;99.90
21104;DHT22;10710;53.398;-1.514;2023-12-20T10:35:16;10.30;99.90
21104;DHT22;10710;53.398;-1.514;2023-12-20T10:38:03;10.40;99.90
21104;DHT22;10710;53.398;-1.514;2023-12-20T10:40:49;10.40;99.90
21104;DHT22;10710;53.398;-1.514;2023-12-20T10:43:38;10.20;99.90
21104;DHT22;10710;53.398;-1.514;2023-12-20T10:46:22;10.20;99.90
21104;DHT22;10710;53.398;-1.514;2023-12-20T10:49:08;10.40;99.90
21104;DHT22;10710;53.398;-1.514;2023-12-20T10:51:54;10.40;99.90
21104;DHT22;10710;53.398;-1.514;2023-12-20T10:54:41;10.50;99.90
21104;DHT22;10710;53.398;-1.514;2023-12-20T10:57:27;10.70;99.90
21104;DHT22;10710;53.398;-1.514;2023-12-20T11:00:16;10.60;99.90
21104;DHT22;10710;53.398;-1.514;2023-12-20T11:03:02;10.70;99.90
21104;DHT22;10710;53.398;-1.514;2023-12-20T11:06:29;10.40;99.90
21104;DHT22;10710;53.398;-1.514;2023-12-20T11:09:24;10.50;99.90
21104;DHT22;10710;53.398;-1.514;2023-12-20T11:12:49;10.50;99.90
21104;DHT22;10710;53.398;-1.514;2023-12-20T11:15:25;10.50;99.90
21104;DHT22;10710;53.398;-1.514;2023-12-20T11:18:11;10.40;99.90
21104;DHT22;10710;53.398;-1.514;2023-12-20T11:20:55;10.50;99.90
21104;DHT22;10710;53.398;-1.514;2023-12-20T11:23:44;10.40;99.90
21104;DHT22;10710;53.398;-1.514;2023-12-20T11:26:29;10.40;99.90
21104;DHT22;10710;53.398;-1.514;2023-12-20T11:37:57;10.90;99.90
21104;DHT22;10710;53.398;-1.514;2023-12-20T11:40:43;10.50;99.90
21104;DHT22;10710;53.398;-1.514;2023-12-20T11:43:32;10.50;99.90
21104;DHT22;10710;53.398;-1.514;2023-12-20T11:46:18;10.40;99.90
21104;DHT22;10710;53.398;-1.514;2023-12-20T11:49:03;10.40;99.90
21104;DHT22;10710;53.398;-1.514;2023-12-20T11:51:47;10.50;99.90
21104;DHT22;10710;53.398;-1.514;2023-12-20T11:54:32;10.50;99.90
21104;DHT22;10710;53.398;-1.514;2023-12-20T11:57:17;10.50;99.90
21104;DHT22;10710;53.398;-1.514;2023-12-20T12:00:02;10.70;99.90
21104;DHT22;10710;53.398;-1.514;2023-12-20T12:02:57;10.70;99.90
21104;DHT22;10710;53.398;-1.514;2023-12-20T12:05:41;10.60;99.90
21104;DHT22;10710;53.398;-1.514;2023-12-20T12:08:25;10.70;99.90
21104;DHT22;10710;53.398;-1.514;2023-12-20T12:11:10;10.60;99.90
21104;DHT22;10710;53.398;-1.514;2023-12-20T12:13:54;10.70;99.90
21104;DHT22;10710;53.398;-1.514;2023-12-20T12:16:38;10.60;99.90
21104;DHT22;10710;53.398;-1.514;2023-12-20T12:19:24;10.60;99.90
21104;DHT22;10710;53.398;-1.514;2023-12-20T12:22:13;10.80;99.90
21104;DHT22;10710;53.398;-1.514;2023-12-20T12:25:08;10.70;99.90
21104;DHT22;10710;53.398;-1.514;2023-12-20T12:27:52;10.70;99.90
21104;DHT22;10710;53.398;-1.514;2023-12-20T12:30:37;11.40;99.90
21104;DHT22;10710;53.398;-1.514;2023-12-20T12:33:21;10.80;99.90
21104;DHT22;10710;53.398;-1.514;2023-12-20T12:36:07;10.80;99.90
21104;DHT22;10710;53.398;-1.514;2023-12-20T12:38:52;11.00;99.90
21104;DHT22;10710;53.398;-1.514;2023-12-20T12:41:36;10.70;99.90
21104;DHT22;10710;53.398;-1.514;2023-12-20T12:44:20;10.70;99.90
21104;DHT22;10710;53.398;-1.514;2023-12-20T12:47:07;10.90;99.90
21104;DHT22;10710;53.398;-1.514;2023-12-20T12:49:52;10.90;99.90
21104;DHT22;10710;53.398;-1.514;2023-12-20T12:52:39;10.90;99.90
21104;DHT22;10710;53.398;-1.514;2023-12-20T12:55:23;10.90;99.90
21104;DHT22;10710;53.398;-1.514;2023-12-20T12:58:08;10.90;99.90
21104;DHT22;10710;53.398;-1.514;2023-12-20T13:00:52;10.90;99.90
21104;DHT22;10710;53.398;-1.514;2023-12-20T13:03:37;11.00;99.90
21104;DHT22;10710;53.398;-1.514;2023-12-20T13:06:22;11.00;99.90
21104;DHT22;10710;53.398;-1.514;2023-12-20T13:09:07;11.10;99.90
21104;DHT22;10710;53.398;-1.514;2023-12-20T13:11:53;11.00;99.90
21104;DHT22;10710;53.398;-1.514;2023-12-20T13:14:38;11.00;99.90
21104;DHT22;10710;53.398;-1.514;2023-12-20T13:17:23;11.20;99.90
21104;DHT22;10710;53.398;-1.514;2023-12-20T13:20:07;11.10;99.90
21104;DHT22;10710;53.398;-1.514;2023-12-20T13:22:52;11.00;99.90
21104;DHT22;10710;53.398;-1.514;2023-12-20T13:25:36;10.90;99.90
21104;DHT22;10710;53.398;-1.514;2023-12-20T13:28:20;11.00;99.90
21104;DHT22;10710;53.398;-1.514;2023-12-20T13:31:04;11.00;99.90
21104;DHT22;10710;53.398;-1.514;2023-12-20T13:33:49;11.00;99.90
21104;DHT22;10710;53.398;-1.514;2023-12-20T13:36:34;10.90;99.90
21104;DHT22;10710;53.398;-1.514;2023-12-20T13:39:20;10.90;99.90
21104;DHT22;10710;53.398;-1.514;2023-12-20T13:42:05;10.90;99.90
21104;DHT22;10710;53.398;-1.514;2023-12-20T13:44:49;10.90;99.90
21104;DHT22;10710;53.398;-1.514;2023-12-20T13:47:34;10.90;99.90
21104;DHT22;10710;53.398;-1.514;2023-12-20T13:50:19;10.90;99.90
21104;DHT22;10710;53.398;-1.514;2023-12-20T13:53:04;10.90;99.90
21104;DHT22;10710;53.398;-1.514;2023-12-20T13:55:48;11.00;99.90
21104;DHT22;10710;53.398;-1.514;2023-12-20T13:58:33;11.00;99.90
21104;DHT22;10710;53.398;-1.514;2023-12-20T14:01:18;10.90;99.90
21104;DHT22;10710;53.398;-1.514;2023-12-20T14:04:03;10.90;99.90
21104;DHT22;10710;53.398;-1.514;2023-12-20T14:06:47;10.90;99.90
21104;DHT22;10710;53.398;-1.514;2023-12-20T14:09:31;10.90;99.90
21104;DHT22;10710;53.398;-1.514;2023-12-20T14:12:16;10.90;99.90
21104;DHT22;10710;53.398;-1.514;2023-12-20T14:15:00;10.80;99.90
21104;DHT22;10710;53.398;-1.514;2023-12-20T14:17:44;10.90;99.90
21104;DHT22;10710;53.398;-1.514;2023-12-20T14:20:28;10.90;99.90
21104;DHT22;10710;53.398;-1.514;2023-12-20T14:23:13;10.90;99.90
21104;DHT22;10710;53.398;-1.514;2023-12-20T14:26:00;11.10;99.90
21104;DHT22;10710;53.398;-1.514;2023-12-20T14:28:46;11.10;99.90
21104;DHT22;10710;53.398;-1.514;2023-12-20T14:31:30;11.20;99.90
21104;DHT22;10710;53.398;-1.514;2023-12-20T14:34:14;11.30;99.90
21104;DHT22;10710;53.398;-1.514;2023-12-20T14:36:59;11.40;99.90
21104;DHT22;10710;53.398;-1.514;2023-12-20T14:39:43;11.50;99.90
21104;DHT22;10710;53.398;-1.514;2023-12-20T14:42:28;11.10;99.90
21104;DHT22;10710;53.398;-1.514;2023-12-20T14:45:14;11.00;99.90
21104;DHT22;10710;53.398;-1.514;2023-12-20T14:47:59;11.10;99.90
21104;DHT22;10710;53.398;-1.514;2023-12-20T14:50:44;11.10;99.90
21104;DHT22;10710;53.398;-1.514;2023-12-20T14:53:31;11.10;99.90
21104;DHT22;10710;53.398;-1.514;2023-12-20T14:56:15;11.10;99.90
21104;DHT22;10710;53.398;-1.514;2023-12-20T14:59:00;11.10;99.90
21104;DHT22;10710;53.398;-1.514;2023-12-20T15:01:44;11.10;99.90
21104;DHT22;10710;53.398;-1.514;2023-12-20T15:04:29;11.10;99.90
21104;DHT22;10710;53.398;-1.514;2023-12-20T15:07:15;10.90;99.90
21104;DHT22;10710;53.398;-1.514;2023-12-20T15:10:00;10.90;99.90
21104;DHT22;10710;53.398;-1.514;2023-12-20T15:12:44;10.90;99.90
21104;DHT22;10710;53.398;-1.514;2023-12-20T15:15:30;10.80;99.90
21104;DHT22;10710;53.398;-1.514;2023-12-20T15:18:16;10.80;99.90
21104;DHT22;10710;53.398;-1.514;2023-12-20T15:21:01;10.80;99.90
21104;DHT22;10710;53.398;-1.514;2023-12-20T15:23:45;10.80;99.90
21104;DHT22;10710;53.398;-1.514;2023-12-20T15:26:40;10.70;99.90
21104;DHT22;10710;53.398;-1.514;2023-12-20T15:29:24;10.70;99.90
21104;DHT22;10710;53.398;-1.514;2023-12-20T15:32:08;10.80;99.90
21104;DHT22;10710;53.398;-1.514;2023-12-20T15:34:53;10.80;99.90
21104;DHT22;10710;53.398;-1.514;2023-12-20T15:37:40;10.80;99.90
21104;DHT22;10710;53.398;-1.514;2023-12-20T15:40:25;10.90;99.90
21104;DHT22;10710;53.398;-1.514;2023-12-20T15:43:09;10.90;99.90
21104;DHT22;10710;53.398;-1.514;2023-12-20T15:45:54;10.90;99.90
21104;DHT22;10710;53.398;-1.514;2023-12-20T15:48:39;10.80;99.90
21104;DHT22;10710;53.398;-1.514;2023-12-20T15:51:23;10.80;99.90
21104;DHT22;10710;53.398;-1.514;2023-12-20T15:54:08;10.80;99.90
21104;DHT22;10710;53.398;-1.514;2023-12-20T15:56:52;10.80;99.90
21104;DHT22;10710;53.398;-1.514;2023-12-20T15:59:37;10.80;99.90
21104;DHT22;10710;53.398;-1.514;2023-12-20T16:02:21;10.90;99.90
21104;DHT22;10710;53.398;-1.514;2023-12-20T16:05:07;10.80;99.90
21104;DHT22;10710;53.398;-1.514;2023-12-20T16:07:51;10.80;99.90
21104;DHT22;10710;53.398;-1.514;2023-12-20T16:10:36;10.80;99.90
21104;DHT22;10710;53.398;-1.514;2023-12-20T16:13:21;10.90;99.90
21104;DHT22;10710;53.398;-1.514;2023-12-20T16:16:05;10.80;99.90
21104;DHT22;10710;53.398;-1.514;2023-12-20T16:18:49;10.90;99.90
21104;DHT22;10710;53.398;-1.514;2023-12-20T16:21:37;10.90;99.90
21104;DHT22;10710;53.398;-1.514;2023-12-20T16:24:22;10.90;99.90
21104;DHT22;10710;53.398;-1.514;2023-12-20T16:27:06;10.90;99.90
21104;DHT22;10710;53.398;-1.514;2023-12-20T16:29:50;10.90;99.90
21104;DHT22;10710;53.398;-1.514;2023-12-20T16:32:34;10.90;99.90
21104;DHT22;10710;53.398;-1.514;2023-12-20T16:35:18;10.90;99.90
21104;DHT22;10710;53.398;-1.514;2023-12-20T16:38:02;10.90;99.90
21104;DHT22;10710;53.398;-1.514;2023-12-20T16:40:47;10.90;99.90
21104;DHT22;10710;53.398;-1.514;2023-12-20T16:43:32;10.90;99.90
21104;DHT22;10710;53.398;-1.514;2023-12-20T16:46:16;10.90;99.90
21104;DHT22;10710;53.398;-1.514;2023-12-20T16:49:01;10.90;99.90
21104;DHT22;10710;53.398;-1.514;2023-12-20T16:51:45;10.90;99.90
21104;DHT22;10710;53.398;-1.514;2023-12-20T16:54:29;10.90;99.90
21104;DHT22;10710;53.398;-1.514;2023-12-20T16:57:14;10.90;99.90
21104;DHT22;10710;53.398;-1.514;2023-12-20T16:59:59;11.00;99.90
21104;DHT22;10710;53.398;-1.514;2023-12-20T17:02:43;11.00;99.90
21104;DHT22;10710;53.398;-1.514;2023-12-20T17:05:27;11.00;99.90
21104;DHT22;10710;53.398;-1.514;2023-12-20T17:08:12;11.10;99.90
21104;DHT22;10710;53.398;-1.514;2023-12-20T17:10:56;11.10;99.90
21104;DHT22;10710;53.398;-1.514;2023-12-20T17:13:40;11.20;99.90
21104;DHT22;10710;53.398;-1.514;2023-12-20T17:16:25;11.20;99.90
21104;DHT22;10710;53.398;-1.514;2023-12-20T17:19:09;11.20;99.90
21104;DHT22;10710;53.398;-1.514;2023-12-20T17:21:53;11.20;99.90
21104;DHT22;10710;53.398;-1.514;2023-12-20T17:24:38;11.10;99.90
21104;DHT22;10710;53.398;-1.514;2023-12-20T17:27:22;11.10;99.90
21104;DHT22;10710;53.398;-1.514;2023-12-20T17:30:07;11.30;99.90
21104;DHT22;10710;53.398;-1.514;2023-12-20T17:32:52;11.30;99.90
21104;DHT22;10710;53.398;-1.514;2023-12-20T17:35:37;11.30;99.90
21104;DHT22;10710;53.398;-1.514;2023-12-20T17:38:21;11.20;99.90
21104;DHT22;10710;53.398;-1.514;2023-12-20T17:41:06;11.20;99.90
21104;DHT22;10710;53.398;-1.514;2023-12-20T17:43:51;11.20;99.90
21104;DHT22;10710;53.398;-1.514;2023-12-20T17:46:35;11.10;99.90
21104;DHT22;10710;53.398;-1.514;2023-12-20T17:49:20;11.20;99.90
21104;DHT22;10710;53.398;-1.514;2023-12-20T17:52:05;11.10;99.90
21104;DHT22;10710;53.398;-1.514;2023-12-20T17:54:50;11.10;99.90
21104;DHT22;10710;53.398;-1.514;2023-12-20T17:57:34;11.20;99.90
21104;DHT22;10710;53.398;-1.514;2023-12-20T18:00:26;11.10;99.90
21104;DHT22;10710;53.398;-1.514;2023-12-20T18:03:11;11.10;99.90
21104;DHT22;10710;53.398;-1.514;2023-12-20T18:05:57;11.10;99.90
21104;DHT22;10710;53.398;-1.514;2023-12-20T18:08:41;11.10;99.90
21104;DHT22;10710;53.398;-1.514;2023-12-20T18:11:26;11.10;99.90
21104;DHT22;10710;53.398;-1.514;2023-12-20T18:14:10;11.10;99.90
21104;DHT22;10710;53.398;-1.514;2023-12-20T18:16:54;11.10;99.90
21104;DHT22;10710;53.398;-1.514;2023-12-20T18:19:38;11.10;99.90
21104;DHT22;10710;53.398;-1.514;2023-12-20T18:22:23;11.20;99.90
21104;DHT22;10710;53.398;-1.514;2023-12-20T18:25:07;11.10;99.90
21104;DHT22;10710;53.398;-1.514;2023-12-20T18:27:52;11.20;99.90
21104;DHT22;10710;53.398;-1.514;2023-12-20T18:30:36;11.20;99.90
21104;DHT22;10710;53.398;-1.514;2023-12-20T18:33:20;11.20;99.90
21104;DHT22;10710;53.398;-1.514;2023-12-20T18:36:05;11.20;99.90
21104;DHT22;10710;53.398;-1.514;2023-12-20T18:38:49;11.30;99.90
21104;DHT22;10710;53.398;-1.514;2023-12-20T18:41:34;11.30;99.90
21104;DHT22;10710;53.398;-1.514;2023-12-20T18:44:18;11.30;99.90
21104;DHT22;10710;53.398;-1.514;2023-12-20T18:47:03;11.30;99.90
21104;DHT22;10710;53.398;-1.514;2023-12-20T18:49:48;11.40;99.90
21104;DHT22;10710;53.398;-1.514;2023-12-20T18:55:14;11.50;99.90
21104;DHT22;10710;53.398;-1.514;2023-12-20T18:57:59;11.70;99.90
21104;DHT22;10710;53.398;-1.514;2023-12-20T19:00:43;11.50;99.90
21104;DHT22;10710;53.398;-1.514;2023-12-20T19:03:30;11.50;99.90
21104;DHT22;10710;53.398;-1.514;2023-12-20T19:06:15;11.50;99.90
21104;DHT22;10710;53.398;-1.514;2023-12-20T19:08:59;11.40;99.90
21104;DHT22;10710;53.398;-1.514;2023-12-20T19:11:43;11.40;99.90
21104;DHT22;10710;53.398;-1.514;2023-12-20T19:14:27;11.50;99.90
21104;DHT22;10710;53.398;-1.514;2023-12-20T19:17:13;11.40;99.90
21104;DHT22;10710;53.398;-1.514;2023-12-20T19:19:57;11.40;99.90
21104;DHT22;10710;53.398;-1.514;2023-12-20T19:22:42;11.40;99.90
21104;DHT22;10710;53.398;-1.514;2023-12-20T19:25:26;11.60;99.90
21104;DHT22;10710;53.398;-1.514;2023-12-20T19:28:11;11.50;99.90
21104;DHT22;10710;53.398;-1.514;2023-12-20T19:30:56;11.60;99.90
21104;DHT22;10710;53.398;-1.514;2023-12-20T19:33:42;11.60;99.90
21104;DHT22;10710;53.398;-1.514;2023-12-20T19:36:27;11.70;99.90
21104;DHT22;10710;53.398;-1.514;2023-12-20T19:39:12;11.60;99.90
21104;DHT22;10710;53.398;-1.514;2023-12-20T19:41:56;11.60;99.90
21104;DHT22;10710;53.398;-1.514;2023-12-20T19:44:40;11.60;99.90
21104;DHT22;10710;53.398;-1.514;2023-12-20T19:47:24;11.60;99.90
21104;DHT22;10710;53.398;-1.514;2023-12-20T19:50:09;11.60;99.90
21104;DHT22;10710;53.398;-1.514;2023-12-20T19:52:54;11.60;99.90
21104;DHT22;10710;53.398;-1.514;2023-12-20T19:55:39;11.70;99.90
21104;DHT22;10710;53.398;-1.514;2023-12-20T19:58:24;11.70;99.90
21104;DHT22;10710;53.398;-1.514;2023-12-20T20:01:09;11.60;99.90
21104;DHT22;10710;53.398;-1.514;2023-12-20T20:03:53;11.60;99.90
21104;DHT22;10710;53.398;-1.514;2023-12-20T20:06:37;11.50;99.90
21104;DHT22;10710;53.398;-1.514;2023-12-20T20:09:22;11.50;99.90
21104;DHT22;10710;53.398;-1.514;2023-12-20T20:12:07;12.20;99.90
21104;DHT22;10710;53.398;-1.514;2023-12-20T20:14:52;11.50;99.90